createdAt,value
2019-05-28T00:00:33.380Z,5.27
2019-05-28T00:05:32.926Z,4.70
2019-05-28T00:10:32.631Z,4.70
2019-05-28T00:15:32.643Z,3.90
2019-05-28T00:20:32.222Z,5.00
2019-05-28T00:25:31.846Z,4.07
2019-05-28T00:30:31.462Z,3.53
2019-05-28T00:35:30.997Z,4.60
2019-05-28T00:40:30.554Z,4.30
2019-05-28T00:45:30.146Z,4.30
2019-05-28T00:50:29.702Z,4.20
2019-05-28T00:55:29.252Z,3.60
2019-05-28T01:00:45.706Z,4.00
2019-05-28T01:05:45.898Z,4.40
2019-05-28T01:10:45.467Z,3.73
2019-05-28T01:15:45.090Z,4.10
2019-05-28T01:20:44.642Z,4.13
2019-05-28T01:25:44.179Z,4.03
2019-05-28T01:30:54.870Z,4.13
2019-05-28T01:35:44.978Z,4.33
2019-05-28T01:40:44.587Z,4.17
2019-05-28T01:45:44.212Z,3.73
2019-05-28T01:50:43.746Z,4.20
2019-05-28T01:55:43.286Z,3.93
2019-05-28T02:00:42.826Z,4.13
2019-05-28T02:05:42.364Z,3.07
2019-05-28T02:10:41.909Z,3.90
2019-05-28T02:15:41.464Z,4.00
2019-05-28T02:20:41.022Z,3.60
2019-05-28T02:25:40.570Z,3.37
2019-05-28T02:30:40.279Z,3.97
2019-05-28T02:35:39.917Z,3.80
2019-05-28T02:40:39.541Z,3.83
2019-05-28T02:45:39.101Z,3.33
2019-05-28T02:50:50.977Z,4.13
2019-05-28T02:55:51.541Z,3.10
2019-05-28T03:00:52.925Z,4.23
2019-05-28T03:05:54.571Z,3.80
2019-05-28T03:11:02.426Z,3.53
2019-05-28T03:15:58.469Z,3.77
2019-05-28T03:20:59.927Z,4.40
2019-05-28T03:25:59.790Z,5.07
2019-05-28T03:30:59.557Z,4.70
2019-05-28T03:36:00.912Z,4.97
2019-05-28T03:41:00.439Z,3.80
2019-05-28T03:46:00.163Z,4.30
2019-05-28T03:50:59.694Z,5.73
2019-05-28T03:55:59.317Z,4.73
2019-05-28T04:00:58.875Z,4.00
2019-05-28T04:05:58.410Z,4.07
2019-05-28T04:10:57.967Z,3.80
2019-05-28T04:15:57.593Z,4.77
2019-05-28T04:20:57.125Z,4.73
2019-05-28T04:25:56.654Z,3.97
2019-05-28T04:30:56.214Z,4.10
2019-05-28T04:35:55.767Z,4.70
2019-05-28T04:40:55.362Z,4.27
2019-05-28T04:45:54.902Z,5.47
2019-05-28T04:50:55.507Z,3.70
2019-05-28T04:55:55.113Z,4.20
2019-05-28T05:00:54.657Z,4.30
2019-05-28T05:05:54.186Z,4.40
2019-05-28T05:10:53.718Z,4.57
2019-05-28T05:15:53.288Z,5.67
2019-05-28T05:20:52.831Z,4.27
2019-05-28T05:25:53.346Z,4.70
2019-05-28T05:30:52.889Z,4.13
2019-05-28T05:35:52.469Z,4.20
2019-05-28T05:40:52.054Z,4.37
2019-05-28T05:45:51.609Z,4.30
2019-05-28T05:50:51.298Z,4.97
2019-05-28T05:55:50.835Z,3.60
2019-05-28T06:00:51.862Z,3.77
2019-05-28T06:05:51.582Z,4.83
2019-05-28T06:10:51.128Z,3.77
2019-05-28T06:15:50.764Z,4.10
2019-05-28T06:20:50.516Z,3.37
2019-05-28T06:25:50.100Z,2.87
2019-05-28T06:30:49.642Z,2.60
2019-05-28T06:35:49.166Z,2.93
2019-05-28T06:40:48.749Z,2.80
2019-05-28T06:45:49.277Z,2.50
2019-05-28T06:50:48.827Z,2.20
2019-05-28T06:55:48.367Z,2.93
2019-05-28T07:00:47.902Z,2.73
2019-05-28T07:06:03.351Z,2.53
2019-05-28T07:10:57.508Z,2.50
2019-05-28T07:15:50.918Z,2.70
2019-05-28T07:20:50.571Z,2.60
2019-05-28T07:25:50.120Z,2.80
2019-05-28T07:30:49.648Z,3.40
2019-05-28T07:35:49.236Z,3.37
2019-05-28T07:40:48.782Z,2.77
2019-05-28T07:45:48.322Z,2.63
2019-05-28T07:50:47.877Z,2.40
2019-05-28T07:55:47.491Z,3.47
2019-05-28T08:00:47.175Z,2.93
2019-05-28T08:05:46.716Z,2.53
2019-05-28T08:10:46.256Z,2.33
2019-05-28T08:15:45.783Z,2.80
2019-05-28T08:20:45.430Z,2.80
2019-05-28T08:25:47.593Z,2.33
2019-05-28T08:30:46.347Z,2.70
2019-05-28T08:35:45.895Z,1.63
2019-05-28T08:40:45.421Z,2.20
2019-05-28T08:45:44.969Z,2.57
2019-05-28T08:50:44.549Z,2.17
2019-05-28T08:55:44.202Z,2.03
2019-05-28T09:00:44.534Z,2.47
2019-05-28T09:05:44.181Z,2.40
2019-05-28T09:10:43.853Z,2.87
2019-05-28T09:15:43.393Z,2.40
2019-05-28T09:20:43.101Z,2.10
2019-05-28T09:25:42.682Z,2.90
2019-05-28T09:30:42.222Z,2.50
2019-05-28T09:35:46.827Z,3.13
2019-05-28T09:40:49.756Z,2.87
2019-05-28T09:45:44.970Z,2.47
2019-05-28T09:50:44.587Z,2.07
2019-05-28T09:55:44.177Z,1.80
2019-05-28T10:00:57.719Z,1.90
2019-05-28T10:05:58.345Z,2.40
2019-05-28T10:10:46.359Z,2.20
2019-05-28T10:15:45.935Z,2.37
2019-05-28T10:20:45.571Z,2.10
2019-05-28T10:25:45.136Z,2.50
2019-05-28T10:30:44.734Z,2.50
2019-05-28T10:35:44.272Z,3.33
2019-05-28T10:40:43.806Z,2.20
2019-05-28T10:45:43.369Z,2.70
2019-05-28T10:50:42.938Z,2.10
2019-05-28T10:55:42.610Z,2.50
2019-05-28T11:00:42.145Z,2.50
2019-05-28T11:05:41.756Z,2.10
2019-05-28T11:10:41.288Z,2.07
2019-05-28T11:15:40.931Z,2.33
2019-05-28T11:20:40.568Z,2.43
2019-05-28T11:25:40.141Z,2.77
2019-05-28T11:30:39.829Z,2.10
2019-05-28T11:35:39.364Z,1.93
2019-05-28T11:40:39.051Z,2.10
2019-05-28T11:45:38.588Z,2.40
2019-05-28T11:50:38.144Z,2.30
2019-05-28T11:55:37.738Z,2.50
2019-05-28T12:00:37.436Z,2.70
2019-05-28T12:05:36.986Z,2.93
2019-05-28T12:10:36.538Z,2.63
2019-05-28T12:15:37.062Z,2.77
2019-05-28T12:20:36.666Z,2.37
2019-05-28T12:25:36.210Z,1.97
2019-05-28T12:30:35.809Z,2.70
2019-05-28T12:35:35.416Z,3.80
2019-05-28T12:40:47.024Z,1.83
2019-05-28T12:45:36.518Z,2.90
2019-05-28T12:50:36.361Z,1.90
2019-05-28T12:55:35.890Z,2.40
2019-05-28T13:00:35.911Z,2.57
2019-05-28T13:05:35.526Z,2.20
2019-05-28T13:10:35.082Z,1.63
2019-05-28T13:15:34.702Z,1.27
2019-05-28T13:20:34.414Z,1.33
2019-05-28T13:25:34.276Z,1.43
2019-05-28T13:30:35.392Z,1.40
2019-05-28T13:35:35.050Z,1.47
2019-05-28T13:40:34.592Z,2.00
2019-05-28T13:45:35.133Z,0.90
2019-05-28T13:50:34.727Z,1.40
2019-05-28T13:55:34.895Z,1.23
2019-05-28T14:00:34.833Z,1.20
2019-05-28T14:05:34.473Z,1.50
2019-05-28T14:10:34.095Z,1.20
2019-05-28T14:15:33.703Z,1.10
2019-05-28T14:20:33.424Z,1.30
2019-05-28T14:25:32.976Z,1.20
2019-05-28T14:30:32.718Z,0.93
2019-05-28T14:35:32.249Z,1.00
2019-05-28T14:40:32.510Z,1.40
2019-05-28T14:45:32.533Z,1.10
2019-05-28T14:50:32.118Z,1.00
2019-05-28T14:55:31.684Z,1.20
2019-05-28T15:00:31.205Z,1.00
2019-05-28T15:05:30.829Z,1.00
2019-05-28T15:10:30.442Z,1.37
2019-05-28T15:15:35.817Z,1.37
2019-05-28T15:20:31.308Z,1.17
2019-05-28T15:25:30.851Z,0.87
2019-05-28T15:30:30.470Z,1.20
2019-05-28T15:35:30.029Z,1.53
2019-05-28T15:40:29.590Z,1.30
2019-05-28T15:45:29.282Z,1.30
2019-05-28T15:50:28.858Z,2.50
2019-05-28T15:55:28.401Z,0.97
2019-05-28T16:00:27.949Z,1.20
2019-05-28T16:05:27.501Z,1.10
2019-05-28T16:10:27.039Z,1.50
2019-05-28T16:15:26.574Z,1.20
2019-05-28T16:20:26.201Z,1.13
2019-05-28T16:25:25.814Z,0.97
2019-05-28T16:30:26.566Z,1.10
2019-05-28T16:35:26.098Z,1.30
2019-05-28T16:40:25.658Z,1.00
2019-05-28T16:45:26.703Z,1.17
2019-05-28T16:50:26.328Z,1.00
2019-05-28T16:55:25.884Z,1.40
2019-05-28T17:00:25.420Z,1.20
2019-05-28T17:05:24.968Z,1.20
2019-05-28T17:10:32.865Z,0.90
2019-05-28T17:15:25.972Z,1.50
2019-05-28T17:20:25.538Z,2.77
2019-05-28T17:25:25.134Z,1.60
2019-05-28T17:30:24.933Z,1.40
2019-05-28T17:35:24.614Z,1.10
2019-05-28T17:40:24.228Z,1.40
2019-05-28T17:45:24.482Z,1.20
2019-05-28T17:50:24.136Z,1.13
2019-05-28T17:55:23.735Z,1.23
2019-05-28T18:00:23.375Z,2.00
2019-05-28T18:05:22.930Z,1.30
2019-05-28T18:10:22.554Z,1.20
2019-05-28T18:15:22.173Z,0.90
2019-05-28T18:20:21.814Z,1.30
2019-05-28T18:25:21.444Z,1.10
2019-05-28T18:30:21.146Z,1.07
2019-05-28T18:35:20.693Z,1.10
2019-05-28T18:40:20.551Z,0.90
2019-05-28T18:45:20.222Z,0.90
2019-05-28T18:50:19.919Z,0.90
2019-05-28T18:55:19.523Z,1.57
2019-05-28T19:00:19.254Z,0.93
2019-05-28T19:05:19.135Z,1.20
2019-05-28T19:10:19.024Z,1.40
2019-05-28T19:15:18.909Z,1.10
2019-05-28T19:20:18.887Z,1.07
2019-05-28T19:25:18.670Z,1.30
2019-05-28T19:30:21.978Z,1.33
2019-05-28T19:35:21.606Z,1.20
2019-05-28T19:40:35.422Z,1.13
2019-05-28T19:45:36.031Z,1.60
2019-05-28T19:50:36.012Z,1.27
2019-05-28T19:55:35.555Z,2.50
2019-05-28T20:00:35.254Z,2.13
2019-05-28T20:05:35.162Z,2.03
2019-05-28T20:10:34.795Z,1.83
2019-05-28T20:15:34.502Z,1.10
2019-05-28T20:20:34.043Z,1.27
2019-05-28T20:25:33.661Z,1.03
2019-05-28T20:30:33.230Z,0.97
2019-05-28T20:35:32.774Z,1.23
2019-05-28T20:40:32.310Z,1.40
2019-05-28T20:45:31.845Z,1.40
2019-05-28T20:50:31.391Z,1.00
2019-05-28T20:55:30.948Z,2.43
2019-05-28T21:00:30.513Z,2.13
2019-05-28T21:05:30.119Z,1.20
2019-05-28T21:10:29.685Z,0.90
2019-05-28T21:15:29.333Z,1.20
2019-05-28T21:20:28.886Z,0.93
2019-05-28T21:25:28.429Z,1.23
2019-05-28T21:30:28.025Z,1.10
2019-05-28T21:35:27.567Z,1.87
2019-05-28T21:40:27.106Z,2.00
2019-05-28T21:45:26.638Z,2.17
2019-05-28T21:50:26.170Z,1.90
2019-05-28T21:55:26.205Z,1.70
2019-05-28T22:00:44.217Z,1.00
2019-05-28T22:05:45.460Z,0.70
2019-05-28T22:10:46.599Z,1.17
2019-05-28T22:15:46.328Z,0.90
2019-05-28T22:20:45.890Z,0.83
2019-05-28T22:25:45.801Z,0.80
2019-05-28T22:30:45.405Z,1.07
2019-05-28T22:35:44.929Z,1.07
2019-05-28T22:40:45.440Z,1.10
2019-05-28T22:45:44.984Z,0.87
2019-05-28T22:50:44.590Z,0.90
2019-05-28T22:55:44.130Z,1.00
2019-05-28T23:00:43.648Z,1.27
2019-05-28T23:05:43.175Z,0.80
2019-05-28T23:10:42.715Z,1.00
2019-05-28T23:15:42.269Z,0.80
2019-05-28T23:20:41.802Z,1.50
2019-05-28T23:25:41.328Z,1.67
2019-05-28T23:30:40.864Z,1.00
2019-05-28T23:35:41.001Z,0.90
2019-05-28T23:40:40.551Z,0.97
2019-05-28T23:45:40.080Z,1.20
2019-05-28T23:50:39.994Z,1.00
2019-05-28T23:55:39.525Z,0.90
